sensor_id;sensor_type;location;lat;lon;timestamp;P1;durP1;ratioP1;P2;durP2;ratioP2
51862;SDS011;37900;52.996;6.278;2022-08-01T00:01:23;2.17;;;1.73;;
51862;SDS011;37900;52.996;6.278;2022-08-01T00:03:49;2.75;;;1.42;;
51862;SDS011;37900;52.996;6.278;2022-08-01T00:06:15;3.30;;;1.83;;
51862;SDS011;37900;52.996;6.278;2022-08-01T00:08:41;2.42;;;1.92;;
51862;SDS011;37900;52.996;6.278;2022-08-01T00:11:06;3.03;;;1.75;;
51862;SDS011;37900;52.996;6.278;2022-08-01T00:13:34;2.20;;;1.70;;
51862;SDS011;37900;52.996;6.278;2022-08-01T00:16:00;3.10;;;1.80;;
51862;SDS011;37900;52.996;6.278;2022-08-01T00:18:26;2.20;;;1.75;;
51862;SDS011;37900;52.996;6.278;2022-08-01T00:20:52;2.60;;;1.80;;
51862;SDS011;37900;52.996;6.278;2022-08-01T00:23:17;1.92;;;1.65;;
51862;SDS011;37900;52.996;6.278;2022-08-01T00:25:43;2.25;;;1.60;;
51862;SDS011;37900;52.996;6.278;2022-08-01T00:28:09;2.15;;;1.60;;
51862;SDS011;37900;52.996;6.278;2022-08-01T00:30:35;3.22;;;1.52;;
51862;SDS011;37900;52.996;6.278;2022-08-01T00:33:01;2.45;;;2.00;;
51862;SDS011;37900;52.996;6.278;2022-08-01T00:35:27;2.40;;;1.50;;
51862;SDS011;37900;52.996;6.278;2022-08-01T00:37:53;1.55;;;1.38;;
51862;SDS011;37900;52.996;6.278;2022-08-01T00:40:19;2.35;;;1.67;;
51862;SDS011;37900;52.996;6.278;2022-08-01T00:42:45;3.35;;;2.10;;
51862;SDS011;37900;52.996;6.278;2022-08-01T00:45:11;2.88;;;1.60;;
51862;SDS011;37900;52.996;6.278;2022-08-01T00:47:37;2.05;;;1.40;;
51862;SDS011;37900;52.996;6.278;2022-08-01T00:50:04;2.77;;;1.70;;
51862;SDS011;37900;52.996;6.278;2022-08-01T00:52:30;1.50;;;1.40;;
51862;SDS011;37900;52.996;6.278;2022-08-01T00:54:57;2.00;;;1.67;;
51862;SDS011;37900;52.996;6.278;2022-08-01T00:57:23;2.25;;;1.48;;
51862;SDS011;37900;52.996;6.278;2022-08-01T00:59:49;2.22;;;1.40;;
51862;SDS011;37900;52.996;6.278;2022-08-01T01:02:14;2.53;;;1.77;;
51862;SDS011;37900;52.996;6.278;2022-08-01T01:04:41;2.10;;;1.67;;
51862;SDS011;37900;52.996;6.278;2022-08-01T01:10:04;1.83;;;1.48;;
51862;SDS011;37900;52.996;6.278;2022-08-01T01:15:15;1.92;;;1.20;;
51862;SDS011;37900;52.996;6.278;2022-08-01T01:18:02;2.03;;;1.60;;
51862;SDS011;37900;52.996;6.278;2022-08-01T01:20:32;1.52;;;1.42;;
51862;SDS011;37900;52.996;6.278;2022-08-01T01:28:35;2.08;;;1.73;;
51862;SDS011;37900;52.996;6.278;2022-08-01T01:31:21;2.13;;;1.50;;
51862;SDS011;37900;52.996;6.278;2022-08-01T01:33:49;2.08;;;1.48;;
51862;SDS011;37900;52.996;6.278;2022-08-01T01:36:17;1.70;;;1.60;;
51862;SDS011;37900;52.996;6.278;2022-08-01T01:38:46;1.98;;;1.77;;
51862;SDS011;37900;52.996;6.278;2022-08-01T01:41:14;1.80;;;1.38;;
51862;SDS011;37900;52.996;6.278;2022-08-01T01:43:42;2.22;;;1.50;;
51862;SDS011;37900;52.996;6.278;2022-08-01T01:46:10;2.20;;;1.67;;
51862;SDS011;37900;52.996;6.278;2022-08-01T01:48:37;2.15;;;1.95;;
51862;SDS011;37900;52.996;6.278;2022-08-01T01:51:05;1.85;;;1.45;;
51862;SDS011;37900;52.996;6.278;2022-08-01T01:53:32;1.83;;;1.58;;
51862;SDS011;37900;52.996;6.278;2022-08-01T01:56:00;1.70;;;1.30;;
51862;SDS011;37900;52.996;6.278;2022-08-01T01:58:27;2.05;;;1.70;;
51862;SDS011;37900;52.996;6.278;2022-08-01T02:00:56;1.73;;;1.50;;
51862;SDS011;37900;52.996;6.278;2022-08-01T02:03:23;2.83;;;1.55;;
51862;SDS011;37900;52.996;6.278;2022-08-01T02:05:51;2.20;;;1.33;;
51862;SDS011;37900;52.996;6.278;2022-08-01T02:08:18;1.65;;;1.35;;
51862;SDS011;37900;52.996;6.278;2022-08-01T02:10:45;2.15;;;1.67;;
51862;SDS011;37900;52.996;6.278;2022-08-01T02:13:31;1.83;;;1.30;;
51862;SDS011;37900;52.996;6.278;2022-08-01T02:18:23;2.55;;;1.45;;
51862;SDS011;37900;52.996;6.278;2022-08-01T02:20:50;2.25;;;1.42;;
51862;SDS011;37900;52.996;6.278;2022-08-01T02:23:19;1.88;;;1.50;;
51862;SDS011;37900;52.996;6.278;2022-08-01T02:28:21;2.13;;;1.38;;
51862;SDS011;37900;52.996;6.278;2022-08-01T02:30:54;2.00;;;1.48;;
51862;SDS011;37900;52.996;6.278;2022-08-01T02:33:27;1.70;;;1.23;;
51862;SDS011;37900;52.996;6.278;2022-08-01T02:35:59;2.20;;;1.40;;
51862;SDS011;37900;52.996;6.278;2022-08-01T02:38:28;2.30;;;1.60;;
51862;SDS011;37900;52.996;6.278;2022-08-01T02:40:57;1.67;;;1.20;;
51862;SDS011;37900;52.996;6.278;2022-08-01T02:43:28;2.35;;;1.40;;
51862;SDS011;37900;52.996;6.278;2022-08-01T02:45:59;2.10;;;1.60;;
51862;SDS011;37900;52.996;6.278;2022-08-01T02:48:26;1.60;;;1.40;;
51862;SDS011;37900;52.996;6.278;2022-08-01T02:50:54;3.70;;;1.63;;
51862;SDS011;37900;52.996;6.278;2022-08-01T02:53:23;1.73;;;1.45;;
51862;SDS011;37900;52.996;6.278;2022-08-01T02:55:51;1.38;;;1.20;;
51862;SDS011;37900;52.996;6.278;2022-08-01T02:58:18;1.45;;;1.17;;
51862;SDS011;37900;52.996;6.278;2022-08-01T03:00:49;1.30;;;1.20;;
51862;SDS011;37900;52.996;6.278;2022-08-01T03:03:15;1.60;;;1.10;;
51862;SDS011;37900;52.996;6.278;2022-08-01T03:05:42;1.98;;;1.45;;
51862;SDS011;37900;52.996;6.278;2022-08-01T03:08:09;1.42;;;1.27;;
51862;SDS011;37900;52.996;6.278;2022-08-01T03:10:36;2.75;;;1.40;;
51862;SDS011;37900;52.996;6.278;2022-08-01T03:13:04;1.73;;;1.30;;
51862;SDS011;37900;52.996;6.278;2022-08-01T03:15:32;1.30;;;1.00;;
51862;SDS011;37900;52.996;6.278;2022-08-01T03:18:01;2.00;;;1.50;;
51862;SDS011;37900;52.996;6.278;2022-08-01T03:22:54;1.75;;;1.23;;
51862;SDS011;37900;52.996;6.278;2022-08-01T03:25:23;1.65;;;1.15;;
51862;SDS011;37900;52.996;6.278;2022-08-01T03:27:54;1.52;;;1.08;;
51862;SDS011;37900;52.996;6.278;2022-08-01T03:30:25;1.67;;;1.27;;
51862;SDS011;37900;52.996;6.278;2022-08-01T03:32:52;1.55;;;1.30;;
51862;SDS011;37900;52.996;6.278;2022-08-01T03:35:19;1.30;;;1.10;;
51862;SDS011;37900;52.996;6.278;2022-08-01T03:37:47;1.55;;;1.10;;
51862;SDS011;37900;52.996;6.278;2022-08-01T03:40:18;1.38;;;1.20;;
51862;SDS011;37900;52.996;6.278;2022-08-01T03:42:49;1.55;;;1.25;;
51862;SDS011;37900;52.996;6.278;2022-08-01T03:45:21;2.25;;;1.67;;
51862;SDS011;37900;52.996;6.278;2022-08-01T03:47:52;1.30;;;1.20;;
51862;SDS011;37900;52.996;6.278;2022-08-01T03:50:27;1.90;;;1.47;;
51862;SDS011;37900;52.996;6.278;2022-08-01T03:52:57;1.85;;;1.13;;
51862;SDS011;37900;52.996;6.278;2022-08-01T03:55:25;2.20;;;1.42;;
51862;SDS011;37900;52.996;6.278;2022-08-01T03:57:52;1.50;;;1.40;;
51862;SDS011;37900;52.996;6.278;2022-08-01T04:00:18;1.52;;;1.10;;
51862;SDS011;37900;52.996;6.278;2022-08-01T04:02:46;1.60;;;1.33;;
51862;SDS011;37900;52.996;6.278;2022-08-01T04:05:14;1.88;;;1.40;;
51862;SDS011;37900;52.996;6.278;2022-08-01T04:07:45;1.83;;;1.23;;
51862;SDS011;37900;52.996;6.278;2022-08-01T04:10:12;1.52;;;1.30;;
51862;SDS011;37900;52.996;6.278;2022-08-01T04:12:38;1.70;;;1.08;;
51862;SDS011;37900;52.996;6.278;2022-08-01T04:15:04;1.58;;;1.30;;
51862;SDS011;37900;52.996;6.278;2022-08-01T04:17:30;1.55;;;1.27;;
51862;SDS011;37900;52.996;6.278;2022-08-01T04:19:56;1.48;;;1.08;;
51862;SDS011;37900;52.996;6.278;2022-08-01T04:22:22;1.33;;;1.05;;
51862;SDS011;37900;52.996;6.278;2022-08-01T04:24:49;1.55;;;1.45;;
51862;SDS011;37900;52.996;6.278;2022-08-01T04:27:32;1.10;;;1.00;;
51862;SDS011;37900;52.996;6.278;2022-08-01T04:30:03;2.03;;;1.30;;
51862;SDS011;37900;52.996;6.278;2022-08-01T04:32:31;1.70;;;1.35;;
51862;SDS011;37900;52.996;6.278;2022-08-01T04:35:01;1.88;;;1.40;;
51862;SDS011;37900;52.996;6.278;2022-08-01T04:37:29;2.45;;;1.33;;
51862;SDS011;37900;52.996;6.278;2022-08-01T04:39:56;1.97;;;1.27;;
51862;SDS011;37900;52.996;6.278;2022-08-01T04:42:23;1.10;;;1.00;;
51862;SDS011;37900;52.996;6.278;2022-08-01T04:44:50;1.95;;;1.30;;
51862;SDS011;37900;52.996;6.278;2022-08-01T04:47:16;2.35;;;1.40;;
51862;SDS011;37900;52.996;6.278;2022-08-01T04:49:42;1.42;;;1.25;;
51862;SDS011;37900;52.996;6.278;2022-08-01T04:52:10;1.80;;;1.17;;
51862;SDS011;37900;52.996;6.278;2022-08-01T04:54:36;1.30;;;1.20;;
51862;SDS011;37900;52.996;6.278;2022-08-01T04:57:03;1.35;;;1.23;;
51862;SDS011;37900;52.996;6.278;2022-08-01T04:59:30;1.40;;;1.30;;
51862;SDS011;37900;52.996;6.278;2022-08-01T05:04:33;1.80;;;1.27;;
51862;SDS011;37900;52.996;6.278;2022-08-01T05:06:59;2.15;;;1.38;;
51862;SDS011;37900;52.996;6.278;2022-08-01T05:09:26;1.77;;;1.42;;
51862;SDS011;37900;52.996;6.278;2022-08-01T05:11:51;1.25;;;1.10;;
51862;SDS011;37900;52.996;6.278;2022-08-01T05:14:17;1.27;;;1.05;;
51862;SDS011;37900;52.996;6.278;2022-08-01T05:16:44;2.03;;;0.95;;
51862;SDS011;37900;52.996;6.278;2022-08-01T05:19:10;1.77;;;1.02;;
51862;SDS011;37900;52.996;6.278;2022-08-01T05:21:36;1.08;;;0.98;;
51862;SDS011;37900;52.996;6.278;2022-08-01T05:24:03;1.25;;;1.00;;
51862;SDS011;37900;52.996;6.278;2022-08-01T05:28:55;2.08;;;1.40;;
51862;SDS011;37900;52.996;6.278;2022-08-01T05:31:21;2.15;;;0.98;;
51862;SDS011;37900;52.996;6.278;2022-08-01T05:33:46;1.00;;;0.90;;
51862;SDS011;37900;52.996;6.278;2022-08-01T05:36:12;1.30;;;0.98;;
51862;SDS011;37900;52.996;6.278;2022-08-01T05:38:38;1.52;;;1.23;;
51862;SDS011;37900;52.996;6.278;2022-08-01T05:41:04;1.67;;;1.10;;
51862;SDS011;37900;52.996;6.278;2022-08-01T05:43:30;1.27;;;1.17;;
51862;SDS011;37900;52.996;6.278;2022-08-01T05:45:56;1.50;;;1.10;;
51862;SDS011;37900;52.996;6.278;2022-08-01T05:48:21;1.55;;;1.40;;
51862;SDS011;37900;52.996;6.278;2022-08-01T05:50:47;2.15;;;1.20;;
51862;SDS011;37900;52.996;6.278;2022-08-01T05:53:13;1.63;;;1.13;;
51862;SDS011;37900;52.996;6.278;2022-08-01T05:55:39;2.10;;;1.10;;
51862;SDS011;37900;52.996;6.278;2022-08-01T05:58:04;1.83;;;1.13;;
51862;SDS011;37900;52.996;6.278;2022-08-01T06:00:30;1.65;;;1.10;;
51862;SDS011;37900;52.996;6.278;2022-08-01T06:02:56;2.85;;;1.33;;
51862;SDS011;37900;52.996;6.278;2022-08-01T06:05:22;1.33;;;1.10;;
51862;SDS011;37900;52.996;6.278;2022-08-01T06:07:47;1.15;;;1.05;;
51862;SDS011;37900;52.996;6.278;2022-08-01T06:10:13;1.70;;;1.17;;
51862;SDS011;37900;52.996;6.278;2022-08-01T06:12:39;1.38;;;1.10;;
51862;SDS011;37900;52.996;6.278;2022-08-01T06:15:05;1.50;;;0.95;;
51862;SDS011;37900;52.996;6.278;2022-08-01T06:17:32;2.35;;;1.13;;
51862;SDS011;37900;52.996;6.278;2022-08-01T06:19:58;1.77;;;1.10;;
51862;SDS011;37900;52.996;6.278;2022-08-01T06:22:24;1.30;;;1.20;;
51862;SDS011;37900;52.996;6.278;2022-08-01T06:24:50;2.28;;;1.40;;
51862;SDS011;37900;52.996;6.278;2022-08-01T06:27:15;1.42;;;1.00;;
51862;SDS011;37900;52.996;6.278;2022-08-01T06:29:41;2.33;;;1.20;;
51862;SDS011;37900;52.996;6.278;2022-08-01T06:32:08;1.30;;;1.20;;
51862;SDS011;37900;52.996;6.278;2022-08-01T06:34:34;1.40;;;1.30;;
51862;SDS011;37900;52.996;6.278;2022-08-01T06:37:00;1.65;;;1.00;;
51862;SDS011;37900;52.996;6.278;2022-08-01T06:39:26;1.50;;;1.23;;
51862;SDS011;37900;52.996;6.278;2022-08-01T06:41:52;2.08;;;1.02;;
51862;SDS011;37900;52.996;6.278;2022-08-01T06:44:18;1.35;;;1.17;;
51862;SDS011;37900;52.996;6.278;2022-08-01T06:46:43;1.35;;;1.00;;
51862;SDS011;37900;52.996;6.278;2022-08-01T06:49:09;1.33;;;1.00;;
51862;SDS011;37900;52.996;6.278;2022-08-01T06:51:35;1.50;;;1.08;;
51862;SDS011;37900;52.996;6.278;2022-08-01T06:54:01;2.60;;;1.23;;
51862;SDS011;37900;52.996;6.278;2022-08-01T06:56:26;2.45;;;1.63;;
51862;SDS011;37900;52.996;6.278;2022-08-01T06:58:52;2.05;;;1.23;;
51862;SDS011;37900;52.996;6.278;2022-08-01T07:01:21;1.25;;;1.15;;
51862;SDS011;37900;52.996;6.278;2022-08-01T07:03:46;2.13;;;1.13;;
51862;SDS011;37900;52.996;6.278;2022-08-01T07:06:12;1.15;;;0.93;;
51862;SDS011;37900;52.996;6.278;2022-08-01T07:08:40;1.67;;;0.93;;
51862;SDS011;37900;52.996;6.278;2022-08-01T07:11:06;2.05;;;1.20;;
51862;SDS011;37900;52.996;6.278;2022-08-01T07:13:31;1.65;;;1.33;;
51862;SDS011;37900;52.996;6.278;2022-08-01T07:15:57;2.72;;;1.17;;
51862;SDS011;37900;52.996;6.278;2022-08-01T07:18:23;1.60;;;1.00;;
51862;SDS011;37900;52.996;6.278;2022-08-01T07:20:49;2.80;;;1.45;;
51862;SDS011;37900;52.996;6.278;2022-08-01T07:23:15;1.65;;;1.10;;
51862;SDS011;37900;52.996;6.278;2022-08-01T07:25:41;2.47;;;1.60;;
51862;SDS011;37900;52.996;6.278;2022-08-01T07:28:07;1.90;;;1.02;;
51862;SDS011;37900;52.996;6.278;2022-08-01T07:30:33;1.23;;;1.10;;
51862;SDS011;37900;52.996;6.278;2022-08-01T07:33:00;1.83;;;1.00;;
51862;SDS011;37900;52.996;6.278;2022-08-01T07:35:26;2.15;;;1.40;;
51862;SDS011;37900;52.996;6.278;2022-08-01T07:37:52;2.42;;;1.30;;
51862;SDS011;37900;52.996;6.278;2022-08-01T07:40:18;2.47;;;1.33;;
51862;SDS011;37900;52.996;6.278;2022-08-01T07:42:44;3.47;;;1.70;;
51862;SDS011;37900;52.996;6.278;2022-08-01T07:45:11;2.63;;;1.50;;
51862;SDS011;37900;52.996;6.278;2022-08-01T07:47:37;3.87;;;1.47;;
51862;SDS011;37900;52.996;6.278;2022-08-01T07:50:03;2.53;;;1.60;;
51862;SDS011;37900;52.996;6.278;2022-08-01T07:52:30;5.00;;;2.30;;
51862;SDS011;37900;52.996;6.278;2022-08-01T07:54:56;3.58;;;1.67;;
51862;SDS011;37900;52.996;6.278;2022-08-01T07:57:23;4.63;;;1.60;;
51862;SDS011;37900;52.996;6.278;2022-08-01T07:59:49;4.38;;;2.05;;
51862;SDS011;37900;52.996;6.278;2022-08-01T08:02:15;2.53;;;1.55;;
51862;SDS011;37900;52.996;6.278;2022-08-01T08:04:40;5.57;;;1.90;;
51862;SDS011;37900;52.996;6.278;2022-08-01T08:07:06;3.78;;;1.70;;
51862;SDS011;37900;52.996;6.278;2022-08-01T08:09:32;5.18;;;2.00;;
51862;SDS011;37900;52.996;6.278;2022-08-01T08:11:58;3.13;;;1.80;;
51862;SDS011;37900;52.996;6.278;2022-08-01T08:14:24;3.25;;;1.75;;
51862;SDS011;37900;52.996;6.278;2022-08-01T08:16:50;5.70;;;2.45;;
51862;SDS011;37900;52.996;6.278;2022-08-01T08:19:16;2.20;;;1.90;;
51862;SDS011;37900;52.996;6.278;2022-08-01T08:21:42;4.80;;;2.15;;
51862;SDS011;37900;52.996;6.278;2022-08-01T08:24:08;3.05;;;1.92;;
51862;SDS011;37900;52.996;6.278;2022-08-01T08:26:44;3.55;;;1.95;;
51862;SDS011;37900;52.996;6.278;2022-08-01T08:29:13;4.82;;;1.77;;
51862;SDS011;37900;52.996;6.278;2022-08-01T08:31:40;7.78;;;2.00;;
51862;SDS011;37900;52.996;6.278;2022-08-01T08:34:06;6.15;;;2.30;;
51862;SDS011;37900;52.996;6.278;2022-08-01T08:36:32;10.73;;;6.25;;
51862;SDS011;37900;52.996;6.278;2022-08-01T08:38:58;9.75;;;4.63;;
51862;SDS011;37900;52.996;6.278;2022-08-01T08:41:28;9.18;;;3.72;;
51862;SDS011;37900;52.996;6.278;2022-08-01T08:43:58;6.93;;;3.42;;
51862;SDS011;37900;52.996;6.278;2022-08-01T08:46:27;7.18;;;3.60;;
51862;SDS011;37900;52.996;6.278;2022-08-01T08:48:54;6.90;;;2.75;;
51862;SDS011;37900;52.996;6.278;2022-08-01T08:53:47;6.30;;;2.95;;
51862;SDS011;37900;52.996;6.278;2022-08-01T08:56:14;4.63;;;2.63;;
51862;SDS011;37900;52.996;6.278;2022-08-01T08:58:43;4.95;;;2.75;;
51862;SDS011;37900;52.996;6.278;2022-08-01T09:01:10;5.70;;;2.95;;
51862;SDS011;37900;52.996;6.278;2022-08-01T09:03:37;5.88;;;2.67;;
51862;SDS011;37900;52.996;6.278;2022-08-01T09:06:03;8.18;;;2.70;;
51862;SDS011;37900;52.996;6.278;2022-08-01T09:08:29;6.47;;;2.95;;
51862;SDS011;37900;52.996;6.278;2022-08-01T09:10:55;6.82;;;2.42;;
51862;SDS011;37900;52.996;6.278;2022-08-01T09:13:21;6.43;;;2.63;;
51862;SDS011;37900;52.996;6.278;2022-08-01T09:15:51;5.78;;;2.45;;
51862;SDS011;37900;52.996;6.278;2022-08-01T09:18:41;6.27;;;2.93;;
51862;SDS011;37900;52.996;6.278;2022-08-01T09:21:19;6.53;;;2.53;;
51862;SDS011;37900;52.996;6.278;2022-08-01T09:23:49;6.72;;;2.45;;
51862;SDS011;37900;52.996;6.278;2022-08-01T09:26:17;6.18;;;2.75;;
51862;SDS011;37900;52.996;6.278;2022-08-01T09:28:45;9.23;;;3.20;;
51862;SDS011;37900;52.996;6.278;2022-08-01T09:31:13;6.40;;;2.70;;
51862;SDS011;37900;52.996;6.278;2022-08-01T09:33:51;6.22;;;2.78;;
51862;SDS011;37900;52.996;6.278;2022-08-01T09:36:20;5.72;;;2.85;;
51862;SDS011;37900;52.996;6.278;2022-08-01T09:38:48;5.95;;;2.85;;
51862;SDS011;37900;52.996;6.278;2022-08-01T09:41:15;5.88;;;2.40;;
51862;SDS011;37900;52.996;6.278;2022-08-01T09:43:47;4.07;;;2.40;;
51862;SDS011;37900;52.996;6.278;2022-08-01T09:46:14;4.13;;;1.90;;
51862;SDS011;37900;52.996;6.278;2022-08-01T09:49:00;5.83;;;2.50;;
51862;SDS011;37900;52.996;6.278;2022-08-01T09:51:34;8.07;;;2.42;;
51862;SDS011;37900;52.996;6.278;2022-08-01T09:54:03;5.57;;;2.85;;
51862;SDS011;37900;52.996;6.278;2022-08-01T09:56:39;4.82;;;2.33;;
51862;SDS011;37900;52.996;6.278;2022-08-01T09:59:08;4.03;;;2.00;;
51862;SDS011;37900;52.996;6.278;2022-08-01T10:01:44;5.40;;;2.13;;
51862;SDS011;37900;52.996;6.278;2022-08-01T10:06:49;4.88;;;2.17;;
51862;SDS011;37900;52.996;6.278;2022-08-01T10:09:32;5.10;;;1.90;;
51862;SDS011;37900;52.996;6.278;2022-08-01T10:12:00;3.05;;;1.95;;
51862;SDS011;37900;52.996;6.278;2022-08-01T10:14:27;5.68;;;2.15;;
51862;SDS011;37900;52.996;6.278;2022-08-01T10:19:21;4.00;;;2.10;;
51862;SDS011;37900;52.996;6.278;2022-08-01T10:21:50;3.88;;;2.30;;
51862;SDS011;37900;52.996;6.278;2022-08-01T10:24:20;3.28;;;2.05;;
51862;SDS011;37900;52.996;6.278;2022-08-01T10:26:55;3.30;;;1.98;;
51862;SDS011;37900;52.996;6.278;2022-08-01T10:29:29;3.75;;;1.80;;
51862;SDS011;37900;52.996;6.278;2022-08-01T10:32:01;4.47;;;2.00;;
51862;SDS011;37900;52.996;6.278;2022-08-01T10:34:29;3.70;;;1.92;;
51862;SDS011;37900;52.996;6.278;2022-08-01T10:36:56;5.43;;;2.20;;
51862;SDS011;37900;52.996;6.278;2022-08-01T10:39:22;5.77;;;2.10;;
51862;SDS011;37900;52.996;6.278;2022-08-01T10:44:16;3.35;;;1.83;;
51862;SDS011;37900;52.996;6.278;2022-08-01T10:46:45;4.40;;;1.65;;
51862;SDS011;37900;52.996;6.278;2022-08-01T10:49:14;5.38;;;2.22;;
51862;SDS011;37900;52.996;6.278;2022-08-01T10:51:42;4.97;;;2.33;;
51862;SDS011;37900;52.996;6.278;2022-08-01T10:54:10;3.38;;;2.08;;
51862;SDS011;37900;52.996;6.278;2022-08-01T10:59:22;5.07;;;1.92;;
51862;SDS011;37900;52.996;6.278;2022-08-01T11:01:58;2.22;;;1.85;;
51862;SDS011;37900;52.996;6.278;2022-08-01T11:07:07;5.55;;;2.38;;
51862;SDS011;37900;52.996;6.278;2022-08-01T11:09:41;4.43;;;2.22;;
51862;SDS011;37900;52.996;6.278;2022-08-01T11:12:09;2.80;;;1.75;;
51862;SDS011;37900;52.996;6.278;2022-08-01T11:20:06;3.20;;;1.73;;
51862;SDS011;37900;52.996;6.278;2022-08-01T11:26:05;3.15;;;1.75;;
51862;SDS011;37900;52.996;6.278;2022-08-01T11:30:39;5.03;;;2.13;;
51862;SDS011;37900;52.996;6.278;2022-08-01T11:33:06;3.90;;;1.90;;
51862;SDS011;37900;52.996;6.278;2022-08-01T11:35:32;2.88;;;1.60;;
51862;SDS011;37900;52.996;6.278;2022-08-01T11:41:08;2.80;;;1.40;;
51862;SDS011;37900;52.996;6.278;2022-08-01T11:46:45;2.85;;;2.03;;
51862;SDS011;37900;52.996;6.278;2022-08-01T11:52:29;2.65;;;1.65;;
51862;SDS011;37900;52.996;6.278;2022-08-01T11:57:30;2.60;;;1.63;;
51862;SDS011;37900;52.996;6.278;2022-08-01T12:00:00;3.38;;;2.35;;
51862;SDS011;37900;52.996;6.278;2022-08-01T12:02:56;4.15;;;2.05;;
51862;SDS011;37900;52.996;6.278;2022-08-01T12:05:23;3.08;;;1.50;;
51862;SDS011;37900;52.996;6.278;2022-08-01T12:07:51;3.78;;;1.80;;
51862;SDS011;37900;52.996;6.278;2022-08-01T12:10:19;3.88;;;1.83;;
51862;SDS011;37900;52.996;6.278;2022-08-01T12:12:47;4.07;;;1.77;;
51862;SDS011;37900;52.996;6.278;2022-08-01T12:15:18;3.28;;;1.77;;
51862;SDS011;37900;52.996;6.278;2022-08-01T12:17:46;3.90;;;1.42;;
51862;SDS011;37900;52.996;6.278;2022-08-01T12:20:20;4.00;;;2.08;;
51862;SDS011;37900;52.996;6.278;2022-08-01T12:22:47;2.67;;;1.58;;
51862;SDS011;37900;52.996;6.278;2022-08-01T12:25:19;3.53;;;1.77;;
51862;SDS011;37900;52.996;6.278;2022-08-01T12:27:46;3.40;;;1.83;;
51862;SDS011;37900;52.996;6.278;2022-08-01T12:30:13;2.13;;;1.50;;
51862;SDS011;37900;52.996;6.278;2022-08-01T12:32:44;2.90;;;1.65;;
51862;SDS011;37900;52.996;6.278;2022-08-01T12:35:12;3.75;;;1.67;;
51862;SDS011;37900;52.996;6.278;2022-08-01T12:37:49;2.67;;;1.50;;
51862;SDS011;37900;52.996;6.278;2022-08-01T12:42:51;3.50;;;1.70;;
51862;SDS011;37900;52.996;6.278;2022-08-01T12:45:25;3.97;;;1.75;;
51862;SDS011;37900;52.996;6.278;2022-08-01T12:47:55;3.55;;;1.83;;
51862;SDS011;37900;52.996;6.278;2022-08-01T12:50:25;2.55;;;1.40;;
51862;SDS011;37900;52.996;6.278;2022-08-01T12:52:56;2.97;;;1.73;;
51862;SDS011;37900;52.996;6.278;2022-08-01T12:55:23;2.95;;;1.80;;
51862;SDS011;37900;52.996;6.278;2022-08-01T12:58:03;3.15;;;1.70;;
51862;SDS011;37900;52.996;6.278;2022-08-01T13:00:31;3.33;;;1.67;;
51862;SDS011;37900;52.996;6.278;2022-08-01T13:03:04;3.40;;;1.73;;
51862;SDS011;37900;52.996;6.278;2022-08-01T13:08:21;4.38;;;1.90;;
51862;SDS011;37900;52.996;6.278;2022-08-01T13:10:51;3.22;;;1.77;;
51862;SDS011;37900;52.996;6.278;2022-08-01T13:13:34;1.77;;;1.33;;
51862;SDS011;37900;52.996;6.278;2022-08-01T13:16:12;1.70;;;1.05;;
51862;SDS011;37900;52.996;6.278;2022-08-01T13:18:38;2.53;;;1.52;;
51862;SDS011;37900;52.996;6.278;2022-08-01T13:21:07;2.85;;;1.50;;
51862;SDS011;37900;52.996;6.278;2022-08-01T13:23:33;4.03;;;1.90;;
51862;SDS011;37900;52.996;6.278;2022-08-01T13:25:59;2.22;;;1.30;;
51862;SDS011;37900;52.996;6.278;2022-08-01T13:28:26;3.35;;;1.98;;
51862;SDS011;37900;52.996;6.278;2022-08-01T13:33:28;2.97;;;1.27;;
51862;SDS011;37900;52.996;6.278;2022-08-01T13:36:06;1.95;;;1.58;;
51862;SDS011;37900;52.996;6.278;2022-08-01T13:38:32;3.15;;;1.58;;
51862;SDS011;37900;52.996;6.278;2022-08-01T13:41:16;3.65;;;1.50;;
51862;SDS011;37900;52.996;6.278;2022-08-01T13:43:42;3.00;;;1.50;;
51862;SDS011;37900;52.996;6.278;2022-08-01T13:46:07;3.45;;;1.38;;
51862;SDS011;37900;52.996;6.278;2022-08-01T13:48:33;2.17;;;1.55;;
51862;SDS011;37900;52.996;6.278;2022-08-01T13:50:59;2.75;;;1.45;;
51862;SDS011;37900;52.996;6.278;2022-08-01T13:53:26;2.83;;;1.38;;
51862;SDS011;37900;52.996;6.278;2022-08-01T13:55:52;2.80;;;1.38;;
51862;SDS011;37900;52.996;6.278;2022-08-01T13:58:18;4.75;;;1.50;;
51862;SDS011;37900;52.996;6.278;2022-08-01T14:00:44;2.05;;;1.30;;
51862;SDS011;37900;52.996;6.278;2022-08-01T14:03:11;2.37;;;1.37;;
51862;SDS011;37900;52.996;6.278;2022-08-01T14:05:37;2.63;;;1.15;;
51862;SDS011;37900;52.996;6.278;2022-08-01T14:08:04;2.05;;;1.48;;
51862;SDS011;37900;52.996;6.278;2022-08-01T14:10:30;3.03;;;1.50;;
51862;SDS011;37900;52.996;6.278;2022-08-01T14:12:56;1.85;;;1.20;;
51862;SDS011;37900;52.996;6.278;2022-08-01T14:15:23;1.97;;;1.30;;
51862;SDS011;37900;52.996;6.278;2022-08-01T14:17:49;2.70;;;1.33;;
51862;SDS011;37900;52.996;6.278;2022-08-01T14:20:15;2.35;;;1.40;;
51862;SDS011;37900;52.996;6.278;2022-08-01T14:22:47;1.52;;;1.25;;
51862;SDS011;37900;52.996;6.278;2022-08-01T14:25:14;2.08;;;1.45;;
51862;SDS011;37900;52.996;6.278;2022-08-01T14:27:40;2.85;;;1.70;;
51862;SDS011;37900;52.996;6.278;2022-08-01T14:30:07;2.28;;;1.35;;
51862;SDS011;37900;52.996;6.278;2022-08-01T14:35:03;4.00;;;1.45;;
51862;SDS011;37900;52.996;6.278;2022-08-01T14:37:30;2.40;;;1.30;;
51862;SDS011;37900;52.996;6.278;2022-08-01T14:39:57;1.50;;;1.07;;
51862;SDS011;37900;52.996;6.278;2022-08-01T14:42:23;2.97;;;1.30;;
51862;SDS011;37900;52.996;6.278;2022-08-01T14:44:49;1.95;;;1.17;;
51862;SDS011;37900;52.996;6.278;2022-08-01T14:47:15;2.85;;;1.60;;
51862;SDS011;37900;52.996;6.278;2022-08-01T14:49:41;3.20;;;1.40;;
51862;SDS011;37900;52.996;6.278;2022-08-01T14:52:07;1.42;;;1.27;;
51862;SDS011;37900;52.996;6.278;2022-08-01T14:54:32;4.35;;;1.60;;
51862;SDS011;37900;52.996;6.278;2022-08-01T14:56:58;2.75;;;1.48;;
51862;SDS011;37900;52.996;6.278;2022-08-01T14:59:24;2.58;;;1.40;;
51862;SDS011;37900;52.996;6.278;2022-08-01T15:01:49;1.60;;;1.23;;
51862;SDS011;37900;52.996;6.278;2022-08-01T15:04:15;3.33;;;1.40;;
51862;SDS011;37900;52.996;6.278;2022-08-01T15:06:42;3.28;;;1.48;;
51862;SDS011;37900;52.996;6.278;2022-08-01T15:09:09;1.95;;;1.48;;
51862;SDS011;37900;52.996;6.278;2022-08-01T15:11:35;1.67;;;1.00;;
51862;SDS011;37900;52.996;6.278;2022-08-01T15:14:01;2.08;;;1.20;;
51862;SDS011;37900;52.996;6.278;2022-08-01T15:16:46;3.40;;;1.17;;
51862;SDS011;37900;52.996;6.278;2022-08-01T15:19:12;2.25;;;1.52;;
51862;SDS011;37900;52.996;6.278;2022-08-01T15:21:38;2.60;;;1.83;;
51862;SDS011;37900;52.996;6.278;2022-08-01T15:24:04;2.85;;;1.25;;
51862;SDS011;37900;52.996;6.278;2022-08-01T15:26:30;2.30;;;1.40;;
51862;SDS011;37900;52.996;6.278;2022-08-01T15:28:56;3.75;;;1.45;;
51862;SDS011;37900;52.996;6.278;2022-08-01T15:31:22;4.55;;;1.83;;
51862;SDS011;37900;52.996;6.278;2022-08-01T15:33:48;3.95;;;1.55;;
51862;SDS011;37900;52.996;6.278;2022-08-01T15:36:13;1.77;;;1.35;;
51862;SDS011;37900;52.996;6.278;2022-08-01T15:38:39;2.55;;;1.13;;
51862;SDS011;37900;52.996;6.278;2022-08-01T15:41:05;2.53;;;1.20;;
51862;SDS011;37900;52.996;6.278;2022-08-01T15:43:31;2.75;;;1.30;;
51862;SDS011;37900;52.996;6.278;2022-08-01T15:45:57;1.88;;;1.23;;
51862;SDS011;37900;52.996;6.278;2022-08-01T15:48:23;2.42;;;1.20;;
51862;SDS011;37900;52.996;6.278;2022-08-01T15:50:49;2.55;;;1.35;;
51862;SDS011;37900;52.996;6.278;2022-08-01T15:53:15;2.40;;;1.40;;
51862;SDS011;37900;52.996;6.278;2022-08-01T15:55:41;2.45;;;1.50;;
51862;SDS011;37900;52.996;6.278;2022-08-01T15:58:06;2.08;;;1.10;;
51862;SDS011;37900;52.996;6.278;2022-08-01T16:00:32;2.78;;;1.20;;
51862;SDS011;37900;52.996;6.278;2022-08-01T16:02:59;2.07;;;1.20;;
51862;SDS011;37900;52.996;6.278;2022-08-01T16:05:24;4.40;;;1.33;;